Time;durP1;ratioP1;P1;durP2;ratioP2;P2;SDS_P1;SDS_P2;PMS_P1;PMS_P2;Temp;Humidity;BMP_temperature;BMP_pressure;BME280_temperature;BME280_humidity;BME280_pressure;Samples;Min_cycle;Max_cycle;Signal;HPM_P1;HPM_P2
2021/03/23 00:03:22;;;;;;;1999.90;999.90;;;;;;;8.16;66.16;101700.69;15807270;28;20055;-62
2021/03/23 00:10:57;;;;;;;1999.90;999.90;;;;;;;8.38;65.78;101701.06;15829137;28;20040;-62
2021/03/23 00:18:28;;;;;;;1999.90;999.90;;;;;;;8.39;66.42;101703.53;15868256;28;21147;-62
2021/03/23 00:26:01;;;;;;;1999.90;999.90;;;;;;;8.31;68.02;101708.88;15869360;28;20270;-63
2021/03/23 00:33:32;;;;;;;1999.90;999.90;;;;;;;8.21;68.76;101706.19;15847813;28;20040;-62
2021/03/23 00:41:06;;;;;;;1999.90;999.90;;;;;;;8.19;69.95;101706.50;15869093;28;20042;-61
2021/03/23 00:48:38;;;;;;;1999.90;999.90;;;;;;;8.10;70.59;101697.13;15844920;28;20040;-62
2021/03/23 00:56:10;;;;;;;1999.90;999.90;;;;;;;8.05;71.28;101699.97;15804722;28;20047;-63
2021/03/23 01:03:41;;;;;;;1999.90;999.90;;;;;;;8.03;71.46;101697.47;15804961;28;20068;-62
2021/03/23 01:11:14;;;;;;;1999.90;999.90;;;;;;;8.03;71.90;101700.25;15828660;28;20039;-62
2021/03/23 01:18:45;;;;;;;1999.90;999.90;;;;;;;8.19;71.27;101702.88;15805596;28;20560;-63
2021/03/23 01:26:18;;;;;;;1999.90;999.90;;;;;;;8.02;71.80;101706.09;15847959;28;20095;-62
2021/03/23 01:33:49;;;;;;;1999.90;999.90;;;;;;;7.86;71.83;101694.28;15799587;28;20044;-63
2021/03/23 01:41:22;;;;;;;1999.90;999.90;;;;;;;7.72;72.42;101696.09;15801955;28;20044;-61
2021/03/23 01:48:53;;;;;;;1999.90;999.90;;;;;;;7.79;72.14;101702.13;15798978;28;20052;-63
2021/03/23 01:56:26;;;;;;;1999.90;999.90;;;;;;;7.69;72.33;101697.47;15801037;28;20040;-62
2021/03/23 02:03:58;;;;;;;1999.90;999.90;;;;;;;7.78;71.83;101708.81;15848825;28;20048;-62
2021/03/23 02:11:31;;;;;;;1999.90;999.90;;;;;;;7.62;72.80;101693.38;15827908;28;20526;-63
2021/03/23 02:19:04;;;;;;;1999.90;999.90;;;;;;;7.64;72.43;101697.53;15843703;28;20130;-62
2021/03/23 02:26:36;;;;;;;1999.90;999.90;;;;;;;7.33;73.60;101705.25;15863027;28;20048;-64
2021/03/23 02:34:10;;;;;;;1999.90;999.90;;;;;;;7.55;73.26;101696.47;15787784;28;20051;-63
2021/03/23 02:41:42;;;;;;;;;;;;;;;7.59;73.16;101707.84;15843104;28;20043;-64
2021/03/23 02:49:14;;;;;;;1999.90;999.90;;;;;;;7.71;72.54;101711.94;15809582;28;19927;-63
2021/03/23 02:56:47;;;;;;;1999.90;999.90;;;;;;;7.63;72.84;101720.03;15811563;28;20147;-64
2021/03/23 03:04:18;;;;;;;1999.90;999.90;;;;;;;7.43;73.26;101709.91;15805503;28;20142;-63
2021/03/23 03:11:51;;;;;;;1999.90;999.90;;;;;;;7.01;74.36;101721.53;15811468;28;20071;-63
2021/03/23 03:19:23;;;;;;;1999.90;999.90;;;;;;;7.13;74.36;101722.03;15811222;28;20060;-63
2021/03/23 03:26:55;;;;;;;1999.90;999.90;;;;;;;7.21;74.13;101738.09;15810548;28;20492;-62
2021/03/23 03:34:27;;;;;;;1999.90;999.90;;;;;;;7.06;75.02;101741.75;15801731;28;20047;-62
2021/03/23 03:42:02;;;;;;;1999.90;999.90;;;;;;;7.30;74.00;101746.66;15807176;28;20672;-62
2021/03/23 03:49:33;;;;;;;1999.90;999.90;;;;;;;7.28;73.65;101743.31;15821660;28;20036;-62
2021/03/23 03:57:07;;;;;;;1999.90;999.90;;;;;;;7.40;73.32;101749.34;15836865;28;20055;-63
2021/03/23 04:04:38;;;;;;;1999.90;999.90;;;;;;;7.14;73.82;101757.00;15788579;28;20485;-63
2021/03/23 04:12:11;;;;;;;1999.90;999.90;;;;;;;7.30;73.12;101764.13;15852379;28;20134;-63
2021/03/23 04:19:43;;;;;;;1999.90;999.90;;;;;;;7.44;72.66;101758.78;15869147;28;20051;-64
2021/03/23 04:27:15;;;;;;;1999.90;999.90;;;;;;;7.23;73.92;101758.88;15851378;28;20570;-61
2021/03/23 04:34:49;;;;;;;1999.90;999.90;;;;;;;7.24;73.79;101762.50;15868590;28;20048;-62
2021/03/23 04:42:21;;;;;;;1999.90;999.90;;;;;;;7.17;74.45;101771.13;15850476;28;20423;-65
2021/03/23 04:49:53;;;;;;;1999.90;999.90;;;;;;;6.97;75.40;101771.19;15866778;28;20101;-63
2021/03/23 04:57:25;;;;;;;1999.90;999.90;;;;;;;6.94;75.42;101778.16;15866784;28;20130;-63
2021/03/23 05:04:56;;;;;;;1999.90;999.90;;;;;;;7.20;75.74;101773.34;15775468;28;20048;-63
2021/03/23 05:12:29;;;;;;;1999.90;999.90;;;;;;;6.94;75.92;101775.38;15804056;28;20060;-62
2021/03/23 05:20:00;;;;;;;1999.90;999.90;;;;;;;6.99;76.07;101791.19;15797636;28;20051;-62
2021/03/23 05:27:33;;;;;;;1999.90;999.90;;;;;;;7.26;75.07;101795.50;15785072;28;20048;-65
2021/03/23 05:35:05;;;;;;;1999.90;999.90;;;;;;;7.44;74.54;101792.94;15788644;28;20055;-64
2021/03/23 05:42:41;;;;;;;1999.90;999.90;;;;;;;7.43;74.34;101799.59;15802684;28;20127;-64
2021/03/23 05:50:21;;;;;;;1999.90;999.90;;;;;;;7.16;75.29;101793.63;15794344;28;20056;-64
2021/03/23 05:57:53;;;;;;;1999.90;999.90;;;;;;;7.16;75.13;101801.94;15801143;28;20286;-64
2021/03/23 06:05:38;;;;;;;1999.90;999.90;;;;;;;7.24;74.18;101802.19;15799764;28;20205;-64
2021/03/23 06:13:24;;;;;;;1999.90;999.90;;;;;;;7.65;72.68;101806.72;15800662;28;20056;-65
2021/03/23 06:21:00;;;;;;;1999.90;999.90;;;;;;;7.78;72.84;101812.44;15799802;28;20408;-64
2021/03/23 06:28:54;;;;;;;1999.90;999.90;;;;;;;7.71;72.28;101820.28;15798460;28;20044;-64
2021/03/23 06:36:27;;;;;;;;;;;;;;;7.71;72.09;101819.44;15799405;28;20449;-64
2021/03/23 06:44:19;;;;;;;1999.90;999.90;;;;;;;7.90;71.84;101822.38;15795396;28;19928;-65
2021/03/23 06:52:00;;;;;;;1999.90;999.90;;;;;;;7.98;71.26;101836.50;15780995;28;20489;-63
2021/03/23 06:59:48;;;;;;;1999.90;999.90;;;;;;;8.10;70.96;101841.69;15798259;28;20054;-65
2021/03/23 07:07:21;;;;;;;1999.90;999.90;;;;;;;7.87;71.19;101834.91;15797122;28;20386;-65
2021/03/23 07:15:08;;;;;;;1999.90;999.90;;;;;;;8.08;70.73;101843.94;15786843;28;20051;-65
2021/03/23 07:22:48;;;;;;;1999.90;999.90;;;;;;;8.09;70.59;101845.59;15810777;28;20036;-63
2021/03/23 07:30:30;;;;;;;1999.90;999.90;;;;;;;7.93;70.24;101850.44;15810380;28;20132;-65
2021/03/23 07:38:11;;;;;;;1999.90;999.90;;;;;;;8.25;69.51;101851.88;15808540;28;20044;-63
2021/03/23 07:45:51;;;;;;;1999.90;999.90;;;;;;;8.08;69.42;101863.41;15854673;28;20085;-64
2021/03/23 07:53:30;;;;;;;1999.90;999.90;;;;;;;8.61;67.73;101861.59;15865961;28;20043;-64
2021/03/23 08:01:24;;;;;;;1999.90;999.90;;;;;;;8.77;67.23;101867.88;15836783;28;20038;-65
2021/03/23 08:09:22;;;;;;;1999.90;999.90;;;;;;;9.08;65.93;101868.38;15832295;28;20042;-64
2021/03/23 08:17:16;;;;;;;1999.90;999.90;;;;;;;8.87;65.70;101875.28;15826842;28;20134;-65
2021/03/23 08:24:56;;;;;;;1999.90;999.90;;;;;;;8.94;65.61;101878.53;15793492;28;20048;-66
2021/03/23 08:32:36;;;;;;;1999.90;999.90;;;;;;;9.10;65.41;101891.19;15824130;28;20067;-65
2021/03/23 08:40:18;;;;;;;1999.90;999.90;;;;;;;8.45;66.16;101893.47;15869124;28;20139;-64
2021/03/23 08:47:57;;;;;;;1999.90;999.90;;;;;;;8.61;66.05;101906.13;15869920;28;20043;-65
2021/03/23 08:55:45;;;;;;;1999.90;999.90;;;;;;;8.64;65.96;101918.63;15869735;28;20050;-65
2021/03/23 09:03:46;;;;;;;1999.90;999.90;;;;;;;8.91;65.48;101927.28;15847700;28;20055;-66
2021/03/23 09:12:00;;;;;;;1999.90;999.90;;;;;;;9.07;65.11;101928.00;15826813;28;20125;-66
2021/03/23 09:19:39;;;;;;;1999.90;999.90;;;;;;;9.17;65.03;101927.91;15834028;28;20048;-65
2021/03/23 09:27:34;;;;;;;1999.90;999.90;;;;;;;9.45;63.63;101942.06;15821493;28;20044;-61
2021/03/23 09:35:17;;;;;;;1999.90;999.90;;;;;;;9.71;63.07;101942.59;15817810;28;20073;-65
2021/03/23 09:43:21;;;;;;;1999.90;999.90;;;;;;;9.42;63.45;101945.44;15827282;28;20094;-64
2021/03/23 09:51:05;;;;;;;1999.90;999.90;;;;;;;10.06;62.37;101950.50;15806460;28;20092;-64
2021/03/23 09:58:38;;;;;;;1999.90;999.90;;;;;;;10.34;61.14;101945.13;15839991;28;20044;-64
2021/03/23 10:06:14;;;;;;;1999.90;999.90;;;;;;;9.72;61.75;101935.91;15820075;28;20138;-65
2021/03/23 10:13:49;;;;;;;1999.90;999.90;;;;;;;10.01;61.83;101946.97;15864426;28;20454;-64
2021/03/23 10:21:30;;;;;;;1999.90;999.90;;;;;;;10.27;61.35;101948.28;15846721;28;20055;-64
2021/03/23 10:29:12;;;;;;;1999.90;999.90;;;;;;;9.91;60.68;101942.34;15845925;28;20067;-66
2021/03/23 10:36:49;;;;;;;1999.90;999.90;;;;;;;10.19;60.17;101948.91;15864687;28;20117;-65
2021/03/23 10:44:28;;;;;;;1999.90;999.90;;;;;;;10.16;58.20;101948.69;15864368;28;20038;-65
2021/03/23 10:52:03;;;;;;;1999.90;999.90;;;;;;;10.19;57.81;101954.50;15868819;28;20062;-65
2021/03/23 10:59:35;;;;;;;1999.90;999.90;;;;;;;10.91;55.72;101957.03;15858322;28;20221;-66
2021/03/23 11:07:21;;;;;;;1999.90;999.90;;;;;;;11.38;54.43;101944.75;15857649;28;20478;-65
2021/03/23 11:14:59;;;;;;;1999.90;999.90;;;;;;;11.98;52.87;101949.41;15858325;28;20588;-65
2021/03/23 11:22:34;;;;;;;1999.90;999.90;;;;;;;12.11;53.42;101943.81;15857794;28;20044;-65
2021/03/23 11:30:06;;;;;;;1999.90;999.90;;;;;;;11.53;53.98;101940.81;15875576;28;20044;-62
2021/03/23 11:37:39;;;;;;;1999.90;999.90;;;;;;;11.65;53.39;101948.69;15874629;28;20112;-64
2021/03/23 11:45:19;;;;;;;1999.90;999.90;;;;;;;11.54;54.12;101934.91;15856042;28;20120;-63
2021/03/23 11:52:53;;;;;;;1999.90;999.90;;;;;;;11.43;53.59;101933.44;15874769;28;20036;-63
2021/03/23 12:00:28;;;;;;;1999.90;999.90;;;;;;;11.25;53.81;101931.56;15854823;28;20036;-63
2021/03/23 12:08:11;;;;;;;1999.90;999.90;;;;;;;10.39;56.57;101937.50;15853347;28;20043;-63
2021/03/23 12:15:50;;;;;;;1999.90;999.90;;;;;;;10.18;58.08;101936.09;15835603;28;20412;-63
2021/03/23 12:23:23;;;;;;;1999.90;999.90;;;;;;;10.09;58.50;101940.69;15854518;28;20054;-63
2021/03/23 12:30:55;;;;;;;1999.90;999.90;;;;;;;10.48;57.53;101934.03;15852288;28;20048;-62
2021/03/23 12:38:27;;;;;;;1999.90;999.90;;;;;;;10.43;59.35;101940.53;15843738;28;20032;-60
2021/03/23 12:46:00;;;;;;;1999.90;999.90;;;;;;;11.02;58.84;101932.56;15821094;28;20060;-63
2021/03/23 12:53:33;;;;;;;1999.90;999.90;;;;;;;11.80;55.59;101926.03;15831680;28;20523;-63
2021/03/23 13:01:05;;;;;;;1999.90;999.90;;;;;;;11.28;56.16;101923.41;15850402;28;20476;-64
2021/03/23 13:08:37;;;;;;;1999.90;999.90;;;;;;;11.09;57.33;101916.25;15870683;28;20067;-64
2021/03/23 13:16:09;;;;;;;1999.90;999.90;;;;;;;11.27;56.17;101918.13;15850912;28;20047;-64
2021/03/23 13:23:50;;;;;;;1999.90;999.90;;;;;;;11.08;56.60;101918.22;15851151;28;20450;-64
2021/03/23 13:31:25;;;;;;;1999.90;999.90;;;;;;;10.78;57.57;101915.94;15868278;28;20437;-64
2021/03/23 13:38:59;;;;;;;1999.90;999.90;;;;;;;10.84;57.82;101917.53;15867635;28;20526;-64
2021/03/23 13:46:33;;;;;;;1999.90;999.90;;;;;;;10.46;59.17;101925.13;15867460;28;20344;-64
2021/03/23 13:54:06;;;;;;;1999.90;999.90;;;;;;;10.64;58.70;101916.75;15866638;28;20072;-63
2021/03/23 14:01:37;;;;;;;1999.90;999.90;;;;;;;10.26;59.28;101915.94;15866776;28;20488;-63
2021/03/23 14:09:26;;;;;;;1999.90;999.90;;;;;;;10.31;59.37;101918.63;15848533;28;20108;-63
2021/03/23 14:16:58;;;;;;;1999.90;999.90;;;;;;;10.40;59.01;101916.00;15847238;28;20138;-62
2021/03/23 14:24:41;;;;;;;1999.90;999.90;;;;;;;10.19;59.63;101915.44;15875025;28;20047;-63
2021/03/23 14:32:13;;;;;;;1999.90;999.90;;;;;;;10.02;60.99;101907.63;15861819;28;20028;-64
2021/03/23 14:39:49;;;;;;;1999.90;999.90;;;;;;;9.67;62.32;101911.69;15829735;28;20404;-65
2021/03/23 14:47:24;;;;;;;1999.90;999.90;;;;;;;9.37;64.52;101920.41;15868358;28;20058;-65
2021/03/23 14:54:58;;;;;;;1999.90;999.90;;;;;;;9.47;64.18;101912.78;15842736;28;20093;-65
2021/03/23 15:02:29;;;;;;;1999.90;999.90;;;;;;;9.68;62.99;101916.13;15863556;28;20039;-65
2021/03/23 15:10:07;;;;;;;1999.90;999.90;;;;;;;9.67;63.52;101908.91;15827388;28;20044;-65
2021/03/23 15:17:39;;;;;;;1999.90;999.90;;;;;;;9.52;63.35;101909.94;15835641;28;20052;-65
2021/03/23 15:25:15;;;;;;;1999.90;999.90;;;;;;;10.02;62.48;101906.78;15800348;28;20036;-64
2021/03/23 15:32:47;;;;;;;1999.90;999.90;;;;;;;9.94;62.32;101901.88;15828854;28;20047;-63
2021/03/23 15:40:23;;;;;;;1999.90;999.90;;;;;;;9.34;62.93;101909.88;15824200;28;20062;-62
2021/03/23 15:47:55;;;;;;;1999.90;999.90;;;;;;;9.63;62.80;101890.31;15794700;28;20076;-64
2021/03/23 15:55:31;;;;;;;1999.90;999.90;;;;;;;9.58;62.61;101893.13;15853411;28;20376;-64
2021/03/23 16:03:04;;;;;;;1999.90;999.90;;;;;;;9.79;62.43;101895.34;15845115;28;20097;-66
2021/03/23 16:10:36;;;;;;;1999.90;999.90;;;;;;;9.81;62.04;101895.09;15854556;28;20050;-66
2021/03/23 16:18:12;;;;;;;1999.90;999.90;;;;;;;9.60;62.23;101890.91;15866520;28;20561;-65
2021/03/23 16:25:44;;;;;;;1999.90;999.90;;;;;;;9.61;62.13;101898.97;15818971;28;20105;-64
2021/03/23 16:33:15;;;;;;;1999.90;999.90;;;;;;;9.68;62.29;101895.78;15836582;28;20039;-63
2021/03/23 16:40:48;;;;;;;1999.90;999.90;;;;;;;9.55;62.24;101914.06;15819957;28;20044;-63
2021/03/23 16:48:20;;;;;;;1999.90;999.90;;;;;;;9.73;62.03;101907.72;15812780;28;20044;-65
2021/03/23 16:55:53;;;;;;;1999.90;999.90;;;;;;;9.64;61.95;101911.47;15837863;28;20044;-64
2021/03/23 17:03:25;;;;;;;1999.90;999.90;;;;;;;9.69;61.98;101911.38;15838990;28;20356;-64
2021/03/23 17:10:57;;;;;;;1999.90;999.90;;;;;;;9.68;62.05;101912.53;15806857;28;20051;-64
2021/03/23 17:18:28;;;;;;;1999.90;999.90;;;;;;;9.35;62.76;101923.50;15817606;28;20059;-65
2021/03/23 17:26:01;;;;;;;1999.90;999.90;;;;;;;9.48;62.72;101921.97;15838672;28;20285;-65
2021/03/23 17:33:39;;;;;;;1999.90;999.90;;;;;;;9.44;62.64;101932.03;15867973;28;20044;-65
2021/03/23 17:41:12;;;;;;;1999.90;999.90;;;;;;;9.53;62.55;101936.69;15813125;28;20039;-65
2021/03/23 17:48:44;;;;;;;1999.90;999.90;;;;;;;9.72;61.96;101942.31;15770945;28;20052;-65
2021/03/23 17:56:16;;;;;;;1999.90;999.90;;;;;;;9.67;62.31;101947.94;15864345;28;20044;-65
2021/03/23 18:03:48;;;;;;;1999.90;999.90;;;;;;;9.81;61.87;101950.84;15804059;28;20043;-65
2021/03/23 18:11:21;;;;;;;1999.90;999.90;;;;;;;9.88;61.94;101959.66;15830415;28;20090;-65
2021/03/23 18:18:52;;;;;;;1999.90;999.90;;;;;;;9.69;62.50;101951.28;15836273;28;20074;-65
2021/03/23 18:26:26;;;;;;;1999.90;999.90;;;;;;;9.85;62.24;101946.31;15848134;28;20056;-65
2021/03/23 18:33:57;;;;;;;1999.90;999.90;;;;;;;9.87;62.29;101962.75;15826674;28;20411;-65
2021/03/23 18:41:29;;;;;;;1999.90;999.90;;;;;;;9.77;62.27;101967.31;15784468;28;20530;-66
2021/03/23 18:49:01;;;;;;;1999.90;999.90;;;;;;;9.68;62.74;101971.88;15837675;28;20044;-65
2021/03/23 18:56:33;;;;;;;1999.90;999.90;;;;;;;9.57;62.47;101977.88;15806945;28;20521;-64
2021/03/23 19:04:05;;;;;;;1999.90;999.90;;;;;;;9.53;62.76;101977.66;15837204;28;20122;-64
2021/03/23 19:11:38;;;;;;;1999.90;999.90;;;;;;;9.48;62.94;101967.41;15792306;28;20040;-65
2021/03/23 19:19:09;;;;;;;1999.90;999.90;;;;;;;9.40;63.22;101972.78;15830526;28;20071;-65
2021/03/23 19:26:42;;;;;;;1999.90;999.90;;;;;;;9.57;62.92;101983.44;15844806;28;20052;-61
2021/03/23 19:34:15;;;;;;;1999.90;999.90;;;;;;;9.30;63.31;101970.09;15843317;28;20051;-62
2021/03/23 19:41:48;;;;;;;1999.90;999.90;;;;;;;9.47;63.28;101976.03;15827057;28;20148;-64
2021/03/23 19:49:19;;;;;;;1999.90;999.90;;;;;;;9.04;64.11;101973.09;15852495;28;20041;-63
2021/03/23 19:56:53;;;;;;;1999.90;999.90;;;;;;;9.28;63.50;101978.75;15826914;28;20055;-64
2021/03/23 20:04:24;;;;;;;1999.90;999.90;;;;;;;9.22;63.79;101977.97;15812746;28;20039;-64
2021/03/23 20:11:57;;;;;;;1999.90;999.90;;;;;;;9.15;64.22;101983.03;15824839;28;20431;-65
2021/03/23 20:19:30;;;;;;;1999.90;999.90;;;;;;;9.24;63.59;101966.53;15869921;28;20075;-65
2021/03/23 20:27:04;;;;;;;1999.90;999.90;;;;;;;9.39;63.47;101965.56;15848029;28;20392;-64
2021/03/23 20:34:35;;;;;;;1999.90;999.90;;;;;;;9.35;63.56;101970.84;15845369;28;20035;-64
2021/03/23 20:42:09;;;;;;;1999.90;999.90;;;;;;;9.41;63.83;101966.91;15855350;28;20051;-64
2021/03/23 20:49:40;;;;;;;1999.90;999.90;;;;;;;9.38;63.58;101969.44;15805951;28;20040;-63
2021/03/23 20:57:12;;;;;;;1999.90;999.90;;;;;;;9.44;63.53;101971.88;15855524;28;20044;-64
2021/03/23 21:04:44;;;;;;;1999.90;999.90;;;;;;;9.47;63.51;101982.44;15825404;28;20040;-63
2021/03/23 21:12:17;;;;;;;1999.90;999.90;;;;;;;9.43;63.30;101980.53;15831224;28;20036;-64
2021/03/23 21:19:48;;;;;;;1999.90;999.90;;;;;;;9.49;63.46;101994.13;15789434;28;20051;-64
2021/03/23 21:27:21;;;;;;;1999.90;999.90;;;;;;;9.42;63.18;101978.88;15841572;28;20675;-62
2021/03/23 21:34:52;;;;;;;1999.90;999.90;;;;;;;9.21;63.72;101981.88;15828585;28;20109;-64
2021/03/23 21:42:25;;;;;;;1999.90;999.90;;;;;;;9.28;63.67;101977.91;15845845;28;20040;-64
2021/03/23 21:49:56;;;;;;;1999.90;999.90;;;;;;;9.38;63.74;101967.50;15802584;28;20122;-64
2021/03/23 21:57:28;;;;;;;1999.90;999.90;;;;;;;9.20;64.32;101969.06;15811615;28;20458;-65
2021/03/23 22:05:00;;;;;;;1999.90;999.90;;;;;;;9.09;64.61;101970.28;15827497;28;20146;-64
2021/03/23 22:12:33;;;;;;;1999.90;999.90;;;;;;;9.10;64.60;101971.94;15837020;28;20039;-64
2021/03/23 22:20:06;;;;;;;1999.90;999.90;;;;;;;9.17;64.37;101955.75;15803065;28;20036;-63
2021/03/23 22:27:38;;;;;;;1999.90;999.90;;;;;;;9.02;63.80;101955.88;15832501;28;20044;-64
2021/03/23 22:35:11;;;;;;;1999.90;999.90;;;;;;;9.13;63.63;101957.44;15832844;28;20055;-64
2021/03/23 22:42:43;;;;;;;1999.90;999.90;;;;;;;9.28;63.34;101950.06;15842799;28;20521;-64
2021/03/23 22:50:17;;;;;;;1999.90;999.90;;;;;;;9.25;63.34;101951.47;15815367;28;20484;-65
2021/03/23 22:57:50;;;;;;;1999.90;999.90;;;;;;;9.33;63.00;101945.25;15835496;28;20044;-65
2021/03/23 23:05:22;;;;;;;1999.90;999.90;;;;;;;9.34;62.80;101946.91;15826659;28;20044;-65
2021/03/23 23:12:56;;;;;;;1999.90;999.90;;;;;;;9.29;63.06;101938.63;15840291;28;20059;-64
2021/03/23 23:20:28;;;;;;;1999.90;999.90;;;;;;;9.23;62.73;101932.28;15820996;28;20052;-65
2021/03/23 23:28:00;;;;;;;1999.90;999.90;;;;;;;9.07;63.16;101925.22;15836558;28;20044;-65
2021/03/23 23:35:32;;;;;;;1999.90;999.90;;;;;;;9.24;62.84;101931.13;15848835;28;20504;-65
2021/03/23 23:43:04;;;;;;;1999.90;999.90;;;;;;;9.14;62.75;101942.38;15821480;28;20396;-66
2021/03/23 23:50:39;;;;;;;1999.90;999.90;;;;;;;9.22;62.82;101947.31;15848662;28;20054;-67
2021/03/23 23:58:14;;;;;;;1999.90;999.90;;;;;;;9.15;62.69;101948.78;15828873;28;20163;-67
